Time;durP1;ratioP1;P1;durP2;ratioP2;P2;SDS_P1;SDS_P2;PMS_P1;PMS_P2;Temp;Humidity;BMP_temperature;BMP_pressure;BME280_temperature;BME280_humidity;BME280_pressure;Samples;Min_cycle;Max_cycle;Signal;HPM_P1;HPM_P2
2022/04/02 02:28:27;;;;;;;5.05;2.67;;;1.20;99.90;;;;;;6219520;22;20024;-71
2022/04/02 02:30:55;;;;;;;5.68;2.80;;;1.20;99.90;;;;;;6194640;23;20008;-72
2022/04/02 02:36:06;;;;;;;6.20;2.80;;;1.20;99.90;;;;;;6244995;23;20005;-70
2022/04/02 02:38:35;;;;;;;5.25;3.05;;;1.20;99.90;;;;;;6219627;23;20027;-73
2022/04/02 02:41:03;;;;;;;8.05;3.30;;;1.20;99.90;;;;;;6194535;23;20000;-72
2022/04/02 02:43:29;;;;;;;6.35;2.45;;;1.20;99.90;;;;;;6219312;23;20001;-70
2022/04/02 02:45:55;;;;;;;4.45;2.83;;;1.30;99.90;;;;;;6194033;23;20001;-71
2022/04/02 02:48:28;;;;;;;6.53;2.70;;;1.20;99.90;;;;;;6194594;23;20020;-71
2022/04/02 02:50:54;;;;;;;7.40;2.85;;;1.20;99.90;;;;;;6194822;23;20007;-70
2022/04/02 02:53:20;;;;;;;6.03;3.10;;;1.10;99.90;;;;;;6219283;23;20028;-71
2022/04/02 02:55:49;;;;;;;7.30;3.05;;;1.10;99.90;;;;;;6195133;23;20021;-70
2022/04/02 02:58:16;;;;;;;7.55;3.35;;;1.10;99.90;;;;;;6194358;23;20027;-71
2022/04/02 03:00:46;;;;;;;7.60;3.50;;;1.00;99.90;;;;;;6219381;23;20001;-73
2022/04/02 03:03:16;;;;;;;;;;;1.00;99.90;;;;;;6169899;23;20023;-70
2022/04/02 03:05:46;;;;;;;5.90;3.10;;;1.00;99.90;;;;;;6244833;23;19915;-73
2022/04/02 06:59:34;;;;;;;7.68;4.00;;;1.70;99.90;;;;;;6181515;22;19900;-70
2022/04/02 07:02:01;;;;;;;10.15;4.43;;;1.80;99.90;;;;;;6164499;23;20037;-71
2022/04/02 07:04:28;;;;;;;7.47;3.55;;;1.90;99.90;;;;;;6164725;23;20013;-71
2022/04/02 07:06:54;;;;;;;10.60;4.35;;;2.00;99.90;;;;;;6164549;23;20031;-71
2022/04/02 07:09:21;;;;;;;8.52;3.92;;;2.10;99.90;;;;;;6189546;23;20012;-71
2022/04/02 07:11:47;;;;;;;5.57;3.65;;;2.20;99.90;;;;;;6164571;23;20020;-71
2022/04/02 07:14:13;;;;;;;12.70;4.15;;;2.30;99.90;;;;;;6124031;23;20019;-71
2022/04/02 07:16:40;;;;;;;8.77;3.70;;;2.40;99.90;;;;;;6100194;23;20002;-72
2022/04/02 17:57:27;;;;;;;4.10;1.85;;;4.30;66.10;;;;;;6235389;22;20020;-70
2022/04/02 18:46:30;;;;;;;2.83;0.90;;;3.10;69.00;;;;;;6185017;23;20073;-70
2022/04/02 18:48:57;;;;;;;3.47;1.00;;;3.00;69.00;;;;;;6112395;23;20009;-69
2022/04/02 19:19:53;;;;;;;2.88;1.10;;;2.50;71.50;;;;;;6181719;22;20015;-70
2022/04/02 19:22:20;;;;;;;3.45;1.10;;;2.50;71.90;;;;;;6219860;22;20004;-70
2022/04/02 19:24:50;;;;;;;3.55;1.10;;;2.40;72.10;;;;;;6194949;22;20008;-69
2022/04/02 19:27:16;;;;;;;2.15;1.17;;;2.40;72.40;;;;;;6194860;23;20004;-69
2022/04/02 19:29:43;;;;;;;3.17;1.10;;;2.40;72.70;;;;;;6194561;23;20007;-69
2022/04/02 20:24:23;;;;;;;3.67;1.08;;;1.50;76.00;;;;;;6237380;22;20000;-71
2022/04/02 20:26:49;;;;;;;2.22;1.15;;;1.40;76.30;;;;;;6244703;23;20015;-69
2022/04/02 20:29:16;;;;;;;2.83;1.20;;;1.40;76.60;;;;;;6219165;23;20005;-69
2022/04/02 22:00:54;;;;;;;3.92;2.63;;;0.30;91.80;;;;;;6231271;22;20107;-68
2022/04/02 22:03:21;;;;;;;4.72;2.67;;;0.30;92.20;;;;;;6193442;23;20025;-70
2022/04/02 22:05:49;;;;;;;4.20;2.60;;;0.30;92.30;;;;;;6218040;23;20017;-68
2022/04/02 22:08:18;;;;;;;5.30;2.83;;;0.30;92.70;;;;;;6193178;23;20031;-70
2022/04/02 22:10:45;;;;;;;5.43;3.23;;;0.30;93.30;;;;;;6218666;23;20007;-69
2022/04/02 22:13:12;;;;;;;5.78;2.88;;;0.20;93.50;;;;;;6218533;22;20267;-69
2022/04/02 22:15:40;;;;;;;15.88;7.53;;;0.20;93.70;;;;;;6218061;22;20007;-68
2022/04/02 22:18:08;;;;;;;11.75;6.35;;;0.20;94.40;;;;;;6195446;23;20051;-69
2022/04/02 22:20:37;;;;;;;9.18;5.45;;;0.10;94.90;;;;;;6195488;22;20024;-68
2022/04/02 22:23:04;;;;;;;49.58;17.63;;;0.10;95.60;;;;;;6220240;23;20076;-68
2022/04/02 22:25:31;;;;;;;35.72;14.05;;;0.10;96.00;;;;;;6220102;23;20017;-69
2022/04/02 22:27:58;;;;;;;27.85;11.98;;;0.10;96.20;;;;;;6245875;22;20011;-68
2022/04/02 22:30:26;;;;;;;34.65;12.43;;;0.10;96.40;;;;;;6246213;23;20026;-68
2022/04/02 22:32:53;;;;;;;25.27;10.85;;;0.00;96.60;;;;;;6195197;23;20007;-68
2022/04/02 22:35:20;;;;;;;19.15;8.75;;;0.00;97.10;;;;;;6220024;23;20035;-68
2022/04/02 22:37:46;;;;;;;27.02;11.38;;;0.00;97.60;;;;;;6220157;23;20096;-68
2022/04/02 22:40:13;;;;;;;21.15;9.40;;;-0.10;97.90;;;;;;6195500;22;20001;-68
2022/04/02 22:42:39;;;;;;;27.48;11.75;;;-0.10;98.50;;;;;;6220025;23;20020;-68
2022/04/02 22:45:05;;;;;;;14.85;7.68;;;-0.10;98.80;;;;;;6220339;23;19997;-68
2022/04/02 23:45:20;;;;;;;5.38;2.78;;;-0.70;99.90;;;;;;6243771;22;20008;-68
2022/04/02 23:47:46;;;;;;;5.75;2.63;;;-0.70;99.90;;;;;;6194665;23;20012;-67
2022/04/02 23:50:12;;;;;;;7.72;2.90;;;-0.70;99.90;;;;;;6219381;23;20054;-68
2022/04/02 23:52:38;;;;;;;5.70;3.15;;;-0.60;99.90;;;;;;6219659;23;20017;-69
